Time;durP1;ratioP1;P1;durP2;ratioP2;P2;SDS_P1;SDS_P2;PMS_P1;PMS_P2;Temp;Humidity;BMP_temperature;BMP_pressure;BME280_temperature;BME280_humidity;BME280_pressure;Samples;Min_cycle;Max_cycle;Signal;HPM_P1;HPM_P2
2020/12/28 00:00:14;;;;;;;4.55;2.15;;;7.20;99.90;;;;;;5035643;28;20029;-87
2020/12/28 00:02:40;;;;;;;4.65;2.10;;;7.10;99.90;;;;;;5052518;28;20021;-87
2020/12/28 00:05:09;;;;;;;8.13;2.33;;;7.00;1.00;;;;;;5053034;28;20017;-87
2020/12/28 00:07:36;;;;;;;5.65;2.20;;;7.00;99.90;;;;;;5058979;28;20037;-87
2020/12/28 00:10:03;;;;;;;2.83;1.90;;;7.20;99.90;;;;;;5035353;28;20071;-87
2020/12/28 00:12:30;;;;;;;7.03;2.22;;;7.50;99.90;;;;;;5035420;28;20029;-86
2020/12/28 00:14:56;;;;;;;7.65;1.85;;;7.20;99.90;;;;;;5053011;28;20099;-86
2020/12/28 00:17:22;;;;;;;6.28;1.98;;;7.50;99.90;;;;;;5034987;28;20060;-87
2020/12/28 00:19:48;;;;;;;4.53;2.00;;;7.10;99.90;;;;;;5055965;28;20582;-87
2020/12/28 00:22:13;;;;;;;4.07;2.00;;;7.00;99.90;;;;;;5073244;28;20365;-87
2020/12/28 00:24:39;;;;;;;6.07;2.03;;;7.50;99.90;;;;;;5073050;28;20086;-87
2020/12/28 00:27:05;;;;;;;4.35;1.95;;;7.10;99.90;;;;;;5053613;28;20454;-87
2020/12/28 00:29:30;;;;;;;3.88;1.73;;;7.60;99.90;;;;;;5055004;28;20045;-86
2020/12/28 00:31:57;;;;;;;3.33;1.75;;;7.20;99.90;;;;;;5072654;28;20388;-87
2020/12/28 00:34:22;;;;;;;4.63;1.90;;;7.30;99.90;;;;;;5036832;28;20025;-87
2020/12/28 00:36:48;;;;;;;4.93;1.70;;;7.40;99.90;;;;;;5052752;28;20029;-87
2020/12/28 00:39:13;;;;;;;3.78;1.77;;;7.80;99.90;;;;;;5053020;28;20523;-87
2020/12/28 00:41:39;;;;;;;6.10;2.28;;;7.40;99.90;;;;;;5034867;28;20029;-86
2020/12/28 00:44:05;;;;;;;3.30;1.90;;;7.40;99.90;;;;;;5052793;28;20029;-87
2020/12/28 00:46:30;;;;;;;4.68;1.85;;;7.40;99.90;;;;;;5052494;28;20033;-86
2020/12/28 00:48:56;;;;;;;6.80;1.98;;;7.50;99.90;;;;;;5042456;28;20021;-87
2020/12/28 00:51:21;;;;;;;3.85;1.80;;;7.60;99.90;;;;;;5045562;28;20028;-86
2020/12/28 00:53:47;;;;;;;9.68;2.25;;;7.50;99.90;;;;;;5054418;28;20021;-87
2020/12/28 00:56:14;;;;;;;6.40;1.60;;;7.50;99.90;;;;;;5034594;28;20024;-86
2020/12/28 00:58:40;;;;;;;6.22;2.10;;;7.40;99.90;;;;;;5042663;28;20016;-87
2020/12/28 01:01:06;;;;;;;4.80;1.60;;;7.50;99.90;;;;;;5055772;28;20527;-86
2020/12/28 01:03:32;;;;;;;5.47;2.17;;;7.50;99.90;;;;;;5048095;28;20016;-87
2020/12/28 01:05:57;;;;;;;4.75;1.73;;;7.50;99.90;;;;;;5059849;28;20041;-87
2020/12/28 01:08:23;;;;;;;5.20;1.80;;;7.50;99.90;;;;;;5058647;28;20021;-87
2020/12/28 01:10:49;;;;;;;4.78;1.63;;;7.50;99.90;;;;;;5054628;28;20115;-87
2020/12/28 01:13:15;;;;;;;3.42;1.58;;;7.50;99.90;;;;;;5072736;28;20433;-87
2020/12/28 01:15:42;;;;;;;4.80;1.88;;;7.90;99.90;;;;;;5072351;28;20055;-87
2020/12/28 01:18:07;;;;;;;4.80;1.80;;;7.50;99.90;;;;;;5036550;28;20416;-87
2020/12/28 01:20:33;;;;;;;4.70;1.73;;;7.70;99.90;;;;;;5052606;28;20044;-87
2020/12/28 01:23:00;;;;;;;8.23;1.90;;;7.60;99.90;;;;;;5052509;28;20097;-87
2020/12/28 01:25:26;;;;;;;4.50;1.80;;;7.50;99.90;;;;;;5034561;28;20025;-87
2020/12/28 01:27:51;;;;;;;9.20;2.08;;;7.50;99.90;;;;;;5037620;28;20453;-86
2020/12/28 01:30:17;;;;;;;4.80;1.40;;;7.60;99.90;;;;;;5056045;28;20477;-87
2020/12/28 01:32:43;;;;;;;4.90;1.50;;;7.70;99.90;;;;;;5052487;28;20052;-87
2020/12/28 01:35:08;;;;;;;3.65;1.55;;;7.80;99.90;;;;;;5058402;28;20025;-87
2020/12/28 01:37:34;;;;;;;5.63;1.77;;;7.50;99.90;;;;;;5076496;28;20024;-86
2020/12/28 01:39:59;;;;;;;5.60;1.77;;;7.50;1.00;;;;;;5076256;28;20075;-87
2020/12/28 01:42:25;;;;;;;6.60;1.52;;;7.50;99.90;;;;;;5058196;28;20611;-87
2020/12/28 01:44:51;;;;;;;2.65;1.50;;;7.80;99.90;;;;;;5058000;28;20508;-87
2020/12/28 01:47:16;;;;;;;5.68;1.20;;;7.60;99.90;;;;;;5039312;28;20399;-87
2020/12/28 01:49:42;;;;;;;4.03;1.30;;;7.80;99.90;;;;;;5056073;28;20021;-87
2020/12/28 01:52:09;;;;;;;4.93;1.42;;;7.70;99.90;;;;;;5055954;28;20021;-87
2020/12/28 01:54:35;;;;;;;7.68;1.20;;;8.00;99.90;;;;;;5055355;28;20033;-85
2020/12/28 01:57:01;;;;;;;4.20;1.38;;;7.90;99.90;;;;;;5055931;28;20021;-87
2020/12/28 01:59:26;;;;;;;4.28;1.60;;;8.10;99.90;;;;;;5055389;28;20476;-87
2020/12/28 02:01:54;;;;;;;5.68;1.42;;;7.90;99.90;;;;;;5042563;28;20025;-87
2020/12/28 02:04:20;;;;;;;5.47;1.70;;;7.90;99.90;;;;;;5052213;28;20025;-88
2020/12/28 02:06:46;;;;;;;5.32;1.63;;;8.30;99.90;;;;;;5061133;28;20037;-87
2020/12/28 02:09:13;;;;;;;1.92;1.20;;;8.00;99.90;;;;;;5055880;28;20032;-87
2020/12/28 02:11:39;;;;;;;6.07;1.80;;;7.90;99.90;;;;;;5055368;28;20021;-88
2020/12/28 02:14:05;;;;;;;4.20;1.35;;;7.90;99.90;;;;;;5037171;28;20087;-87
2020/12/28 02:16:31;;;;;;;4.30;1.27;;;8.20;99.90;;;;;;5069651;28;20392;-87
2020/12/28 02:18:58;;;;;;;4.65;1.33;;;7.90;99.90;;;;;;5057383;28;20021;-87
2020/12/28 02:21:23;;;;;;;3.47;1.40;;;7.90;99.90;;;;;;5057572;28;20017;-87
2020/12/28 02:23:49;;;;;;;5.18;1.30;;;8.00;99.90;;;;;;5057414;28;20074;-87
2020/12/28 02:26:15;;;;;;;4.57;1.20;;;7.90;99.90;;;;;;5075249;28;20025;-87
2020/12/28 02:28:40;;;;;;;6.82;1.45;;;7.90;99.90;;;;;;5057049;28;20084;-87
2020/12/28 02:31:06;;;;;;;3.90;1.30;;;7.90;99.90;;;;;;5055795;28;20096;-87
2020/12/28 02:33:31;;;;;;;3.33;1.20;;;7.90;99.90;;;;;;5037302;28;20067;-87
2020/12/28 02:35:57;;;;;;;4.82;1.33;;;8.10;99.90;;;;;;5055192;28;20027;-87
2020/12/28 02:38:23;;;;;;;4.28;1.00;;;7.90;99.90;;;;;;5053928;28;20473;-87
2020/12/28 02:40:48;;;;;;;5.38;1.42;;;7.90;99.90;;;;;;5054970;28;20028;-87
2020/12/28 02:43:14;;;;;;;5.50;1.45;;;7.90;99.90;;;;;;5036741;28;20037;-87
2020/12/28 02:45:40;;;;;;;3.92;1.42;;;7.90;99.90;;;;;;5033346;28;20489;-87
2020/12/28 02:48:05;;;;;;;4.75;1.30;;;7.90;99.90;;;;;;5036466;28;20036;-87
2020/12/28 02:50:31;;;;;;;5.13;1.52;;;8.30;99.90;;;;;;5059999;28;20070;-87
2020/12/28 02:52:56;;;;;;;5.05;1.40;;;7.90;99.90;;;;;;5074824;28;20083;-87
2020/12/28 02:55:22;;;;;;;4.97;1.30;;;8.20;99.90;;;;;;5056662;28;20036;-87
2020/12/28 02:57:48;;;;;;;3.53;1.35;;;8.00;99.90;;;;;;5074371;28;20039;-87
2020/12/28 03:00:15;;;;;;;3.83;1.30;;;8.00;99.90;;;;;;5074522;28;20488;-87
2020/12/28 03:02:41;;;;;;;4.00;1.42;;;8.10;99.90;;;;;;5065576;28;20108;-87
2020/12/28 03:05:07;;;;;;;4.65;1.60;;;8.10;99.90;;;;;;5035609;28;20017;-87
2020/12/28 03:07:33;;;;;;;4.90;1.33;;;8.00;99.90;;;;;;5034475;28;20036;-87
2020/12/28 03:09:58;;;;;;;7.07;1.48;;;8.00;99.90;;;;;;5034303;28;20022;-87
2020/12/28 03:12:24;;;;;;;5.97;1.30;;;7.90;1.00;;;;;;5034463;28;20021;-87
2020/12/28 03:14:50;;;;;;;6.25;1.92;;;8.20;99.90;;;;;;5034559;28;20393;-86
2020/12/28 03:17:15;;;;;;;4.80;2.08;;;8.10;99.90;;;;;;5041163;28;20033;-87
2020/12/28 03:19:41;;;;;;;6.25;1.27;;;8.20;99.90;;;;;;5042381;28;20480;-86
2020/12/28 03:22:07;;;;;;;4.38;1.30;;;7.80;99.90;;;;;;5033107;28;20508;-87
2020/12/28 03:24:32;;;;;;;3.15;1.40;;;8.10;99.90;;;;;;5034439;28;20508;-87
2020/12/28 03:27:02;;;;;;;9.57;1.33;;;7.80;99.90;;;;;;5033830;28;20414;-87
2020/12/28 03:29:32;;;;;;;4.88;1.67;;;7.70;99.90;;;;;;5034373;28;20025;-87
2020/12/28 03:31:58;;;;;;;5.47;1.23;;;7.80;99.90;;;;;;5033701;28;20028;-87
2020/12/28 03:34:24;;;;;;;6.35;1.40;;;8.20;99.90;;;;;;5016223;28;20021;-87
2020/12/28 03:36:50;;;;;;;4.70;1.40;;;7.80;99.90;;;;;;5016342;28;20389;-87
2020/12/28 03:39:16;;;;;;;2.88;1.13;;;7.90;99.90;;;;;;5033732;28;20095;-87
2020/12/28 03:41:42;;;;;;;3.03;1.10;;;8.00;99.90;;;;;;5016006;28;20041;-87
2020/12/28 03:44:08;;;;;;;1.83;0.95;;;7.90;99.90;;;;;;5033982;28;20102;-87
2020/12/28 03:46:33;;;;;;;4.63;1.23;;;7.90;99.90;;;;;;5034590;28;20037;-87
2020/12/28 03:48:59;;;;;;;4.15;1.20;;;8.10;99.90;;;;;;5051700;28;20396;-87
2020/12/28 03:51:25;;;;;;;4.88;1.23;;;8.00;99.90;;;;;;5053931;28;20079;-87
2020/12/28 03:53:53;;;;;;;4.22;1.27;;;7.90;99.90;;;;;;5033968;28;20025;-87
2020/12/28 03:56:19;;;;;;;5.63;1.13;;;7.90;99.90;;;;;;5035173;28;20071;-87
2020/12/28 03:58:45;;;;;;;6.45;2.38;;;7.90;99.90;;;;;;5053718;28;20032;-87
2020/12/28 04:01:11;;;;;;;5.85;1.30;;;7.90;99.90;;;;;;5034494;28;20116;-87
2020/12/28 04:03:37;;;;;;;3.35;1.15;;;8.00;99.90;;;;;;5052421;28;20025;-87
2020/12/28 04:06:04;;;;;;;4.97;1.50;;;8.10;99.90;;;;;;5061722;28;20082;-87
2020/12/28 04:08:30;;;;;;;4.28;1.40;;;8.00;99.90;;;;;;5073261;28;20103;-87
2020/12/28 04:10:56;;;;;;;4.13;1.35;;;8.10;99.90;;;;;;5073004;28;20120;-86
2020/12/28 04:13:21;;;;;;;4.45;1.33;;;8.10;99.90;;;;;;5073316;28;20095;-87
2020/12/28 04:15:48;;;;;;;5.68;1.75;;;8.10;99.90;;;;;;5054951;28;20017;-87
2020/12/28 04:18:13;;;;;;;5.88;1.42;;;8.10;99.90;;;;;;5035033;28;20032;-87
2020/12/28 04:20:39;;;;;;;7.97;1.77;;;8.10;99.90;;;;;;5053083;28;20033;-87
2020/12/28 04:23:04;;;;;;;3.28;1.20;;;8.20;99.90;;;;;;5052916;28;20029;-87
2020/12/28 04:25:30;;;;;;;4.78;1.55;;;8.10;99.90;;;;;;5053106;28;20029;-87
2020/12/28 04:27:56;;;;;;;4.07;1.40;;;8.10;99.90;;;;;;5034870;28;20029;-87
2020/12/28 04:30:21;;;;;;;3.65;1.30;;;8.10;99.90;;;;;;5034909;28;20047;-87
2020/12/28 04:32:47;;;;;;;5.40;1.30;;;8.10;99.90;;;;;;5065310;28;20028;-89
2020/12/28 04:35:13;;;;;;;5.13;1.58;;;8.20;99.90;;;;;;5073050;28;20082;-87
2020/12/28 04:37:39;;;;;;;4.80;1.48;;;8.20;99.90;;;;;;5053139;28;20058;-87
2020/12/28 04:40:05;;;;;;;4.22;1.42;;;8.10;99.90;;;;;;5067197;28;20522;-87
2020/12/28 04:42:31;;;;;;;5.75;1.63;;;8.20;99.90;;;;;;5059468;28;20029;-89
2020/12/28 04:44:57;;;;;;;6.05;1.75;;;8.10;99.90;;;;;;5034627;28;20044;-89
2020/12/28 04:47:33;;;;;;;5.70;1.45;;;8.10;1.00;;;;;;5047425;28;20029;-89
2020/12/28 04:49:59;;;;;;;2.92;1.40;;;8.10;99.90;;;;;;5072659;28;20020;-90
2020/12/28 04:52:27;;;;;;;2.97;1.10;;;8.10;99.90;;;;;;5069563;28;20112;-89
2020/12/28 04:54:56;;;;;;;6.10;1.52;;;8.10;99.90;;;;;;5048340;28;20021;-90
2020/12/28 04:57:22;;;;;;;6.93;1.60;;;8.10;99.90;;;;;;5054779;28;20024;-89
2020/12/28 04:59:56;;;;;;;4.97;1.48;;;8.20;99.90;;;;;;5071990;28;20024;-88
2020/12/28 05:02:23;;;;;;;2.88;1.20;;;8.20;99.90;;;;;;5055742;28;20101;-89
2020/12/28 05:04:49;;;;;;;5.82;1.60;;;8.10;99.90;;;;;;5039300;28;20025;-89
2020/12/28 05:07:15;;;;;;;6.10;1.58;;;8.00;99.90;;;;;;5055996;28;20508;-88
2020/12/28 05:09:40;;;;;;;5.60;1.67;;;8.10;99.90;;;;;;5060250;28;20021;-88
2020/12/28 05:12:07;;;;;;;5.70;1.98;;;8.10;99.90;;;;;;5064605;28;20536;-88
2020/12/28 05:14:33;;;;;;;7.15;1.70;;;7.90;99.90;;;;;;5038703;28;20025;-89
2020/12/28 05:17:03;;;;;;;4.65;1.60;;;8.10;99.90;;;;;;5037946;28;20079;-88
2020/12/28 05:19:30;;;;;;;7.68;1.70;;;7.90;1.00;;;;;;5056344;28;20029;-88
2020/12/28 05:21:56;;;;;;;7.90;1.77;;;8.20;99.90;;;;;;5038441;28;20033;-89
2020/12/28 05:24:23;;;;;;;5.88;1.60;;;7.90;1.00;;;;;;5055656;28;20025;-88
2020/12/28 05:26:49;;;;;;;4.38;1.52;;;8.00;1.00;;;;;;5038605;28;20028;-88
2020/12/28 05:29:23;;;;;;;3.78;1.45;;;7.90;99.90;;;;;;5056443;28;20186;-88
2020/12/28 05:31:50;;;;;;;9.88;1.70;;;7.80;99.90;;;;;;5061039;28;20029;-88
2020/12/28 05:34:19;;;;;;;7.50;1.75;;;7.80;1.00;;;;;;5038461;28;20028;-88
2020/12/28 05:36:50;;;;;;;6.28;1.50;;;7.90;1.00;;;;;;5056832;28;20040;-88
2020/12/28 05:39:19;;;;;;;9.05;1.88;;;8.00;1.00;;;;;;5075955;28;20050;-88
2020/12/28 05:42:12;;;;;;;6.18;1.50;;;7.90;1.00;;;;;;5056791;28;20119;-89
2020/12/28 05:44:39;;;;;;;6.63;1.73;;;7.90;1.00;;;;;;5076088;28;20126;-88
2020/12/28 05:47:17;;;;;;;8.85;1.73;;;7.90;1.00;;;;;;5051947;28;20060;-88
2020/12/28 05:49:47;;;;;;;7.88;1.67;;;7.90;1.00;;;;;;5056662;28;20107;-88
2020/12/28 05:52:14;;;;;;;5.40;1.77;;;7.90;1.00;;;;;;5040397;28;20017;-87
2020/12/28 05:54:41;;;;;;;8.23;1.83;;;8.00;1.00;;;;;;5037727;28;20025;-88
2020/12/28 05:57:07;;;;;;;8.52;1.52;;;7.80;99.90;;;;;;5038089;28;20550;-88
2020/12/28 05:59:35;;;;;;;5.97;1.70;;;7.90;99.90;;;;;;5037798;28;20504;-88
2020/12/28 06:02:02;;;;;;;7.22;1.60;;;7.90;99.90;;;;;;5037859;28;20060;-88
2020/12/28 06:04:28;;;;;;;5.70;1.63;;;8.00;99.90;;;;;;5055192;28;20024;-88
2020/12/28 06:07:02;;;;;;;5.97;1.83;;;8.00;99.90;;;;;;5055494;28;20049;-88
2020/12/28 06:09:28;;;;;;;7.53;1.55;;;8.20;99.90;;;;;;5037527;28;20112;-88
2020/12/28 06:12:08;;;;;;;4.13;1.20;;;8.10;99.90;;;;;;5051628;28;20028;-88
2020/12/28 06:14:38;;;;;;;6.72;1.80;;;8.10;99.90;;;;;;5055087;28;20016;-88
2020/12/28 06:17:06;;;;;;;3.45;1.55;;;8.00;99.90;;;;;;5037598;28;20029;-88
2020/12/28 06:19:31;;;;;;;5.45;1.80;;;8.00;99.90;;;;;;5036914;28;20051;-88
2020/12/28 06:21:57;;;;;;;5.15;1.50;;;8.00;99.90;;;;;;5037413;28;20067;-88
2020/12/28 06:24:33;;;;;;;7.85;1.67;;;7.90;99.90;;;;;;5054857;28;20036;-88
2020/12/28 06:27:03;;;;;;;10.90;2.40;;;7.90;99.90;;;;;;5054957;28;20025;-88
2020/12/28 06:29:30;;;;;;;4.70;1.30;;;7.90;99.90;;;;;;5037169;28;20466;-88
2020/12/28 06:31:55;;;;;;;5.22;1.60;;;7.90;99.90;;;;;;5041020;28;20032;-88
2020/12/28 06:34:21;;;;;;;5.88;1.45;;;8.00;99.90;;;;;;5057120;28;20020;-88
2020/12/28 06:36:57;;;;;;;5.68;1.55;;;8.20;99.90;;;;;;5046901;28;20033;-88
2020/12/28 06:39:23;;;;;;;3.78;1.23;;;8.00;99.90;;;;;;5035063;28;20108;-88
2020/12/28 06:41:48;;;;;;;3.97;1.63;;;8.00;99.90;;;;;;5035127;28;20144;-88
2020/12/28 06:44:25;;;;;;;5.00;1.35;;;8.10;99.90;;;;;;5040496;28;20436;-88
2020/12/28 06:46:50;;;;;;;6.22;1.75;;;8.10;99.90;;;;;;5074926;28;20032;-88
2020/12/28 06:49:16;;;;;;;6.13;1.42;;;8.10;99.90;;;;;;5064530;28;20035;-88
2020/12/28 06:51:42;;;;;;;4.38;1.30;;;8.20;99.90;;;;;;5054971;28;20017;-88
2020/12/28 06:54:08;;;;;;;5.55;1.35;;;8.20;99.90;;;;;;5054913;28;20444;-88
2020/12/28 06:56:33;;;;;;;4.57;1.48;;;8.20;99.90;;;;;;5036993;28;20021;-88
2020/12/28 06:59:00;;;;;;;3.20;1.40;;;8.30;99.90;;;;;;5054867;28;20021;-88
2020/12/28 07:01:26;;;;;;;4.80;1.27;;;8.30;99.90;;;;;;5054605;28;20029;-88
2020/12/28 07:03:53;;;;;;;4.55;1.30;;;8.30;99.90;;;;;;5036471;28;20070;-88
2020/12/28 07:06:18;;;;;;;4.38;1.45;;;8.30;99.90;;;;;;5044959;28;20458;-88
2020/12/28 07:08:44;;;;;;;6.80;1.42;;;8.10;99.90;;;;;;5073072;28;20025;-88
2020/12/28 07:11:10;;;;;;;7.40;1.95;;;7.90;1.00;;;;;;5061188;28;20100;-88
2020/12/28 07:13:36;;;;;;;4.45;1.83;;;7.80;1.00;;;;;;5036553;28;20408;-89
2020/12/28 07:16:06;;;;;;;3.97;1.50;;;8.00;1.00;;;;;;5036867;28;20072;-88
2020/12/28 07:18:34;;;;;;;9.23;1.90;;;7.90;1.00;;;;;;5053967;28;20069;-88
2020/12/28 07:21:01;;;;;;;4.60;1.52;;;8.20;1.00;;;;;;5036427;28;20029;-88
2020/12/28 07:23:27;;;;;;;6.57;1.75;;;7.70;1.00;;;;;;5036457;28;20533;-88
2020/12/28 07:26:09;;;;;;;6.72;1.95;;;7.60;1.00;;;;;;5035701;28;20052;-88
2020/12/28 07:28:36;;;;;;;4.57;1.40;;;7.60;1.00;;;;;;5046090;28;20056;-88
2020/12/28 07:31:04;;;;;;;6.53;1.85;;;7.90;1.00;;;;;;5073992;28;20849;-88
2020/12/28 07:33:30;;;;;;;10.90;1.90;;;7.60;1.00;;;;;;5054543;28;20472;-87
2020/12/28 07:36:14;;;;;;;6.30;2.03;;;7.80;1.00;;;;;;5052965;28;20526;-88
2020/12/28 07:38:46;;;;;;;4.70;1.90;;;7.70;1.00;;;;;;5036193;28;20059;-88
2020/12/28 07:41:15;;;;;;;7.05;1.85;;;8.10;1.00;;;;;;5043553;28;20020;-88
2020/12/28 07:43:52;;;;;;;6.78;1.90;;;7.70;99.90;;;;;;5040186;28;20063;-88
2020/12/28 07:46:33;;;;;;;7.50;1.88;;;8.20;1.00;;;;;;5053795;28;20150;-88
2020/12/28 07:49:19;;;;;;;5.28;1.40;;;7.80;1.00;;;;;;5061461;28;20082;-88
2020/12/28 07:52:10;;;;;;;3.85;1.30;;;7.80;99.90;;;;;;5055050;28;20107;-88
2020/12/28 07:54:56;;;;;;;3.00;1.33;;;7.90;99.90;;;;;;5052868;28;20024;-88
2020/12/28 07:57:33;;;;;;;5.75;2.00;;;7.90;99.90;;;;;;5073574;28;20029;-88
2020/12/28 08:00:07;;;;;;;4.50;1.50;;;7.90;99.90;;;;;;5073651;28;20460;-88
2020/12/28 08:02:44;;;;;;;5.15;1.90;;;8.10;99.90;;;;;;5047618;28;20478;-88
2020/12/28 08:05:11;;;;;;;3.67;1.80;;;8.20;99.90;;;;;;5053439;28;20120;-88
2020/12/28 08:07:37;;;;;;;6.07;2.17;;;8.30;99.90;;;;;;5052915;28;20408;-88
2020/12/28 08:10:10;;;;;;;5.57;2.03;;;8.10;99.90;;;;;;5035618;28;20025;-88
2020/12/28 08:12:40;;;;;;;3.60;1.52;;;8.10;99.90;;;;;;5035194;28;20028;-88
2020/12/28 08:15:07;;;;;;;4.97;1.40;;;8.20;99.90;;;;;;5043006;28;20017;-89
2020/12/28 08:17:32;;;;;;;4.75;1.70;;;8.20;99.90;;;;;;5051247;28;20036;-89
2020/12/28 08:20:11;;;;;;;4.68;1.45;;;8.30;99.90;;;;;;5054264;28;20062;-88
2020/12/28 08:22:40;;;;;;;3.95;1.55;;;8.30;99.90;;;;;;5072716;28;20091;-89
2020/12/28 08:25:11;;;;;;;4.72;1.73;;;8.40;99.90;;;;;;5065363;28;20081;-88
2020/12/28 08:27:37;;;;;;;5.55;2.50;;;8.70;99.90;;;;;;5054503;28;20036;-88
2020/12/28 08:30:08;;;;;;;5.35;2.00;;;9.40;99.90;;;;;;5061800;28;20017;-88
2020/12/28 08:32:35;;;;;;;4.57;2.30;;;9.90;99.90;;;;;;5033406;28;20089;-87
2020/12/28 08:35:02;;;;;;;8.20;3.08;;;10.70;99.90;;;;;;5045371;28;20028;-88
2020/12/28 08:37:28;;;;;;;7.25;3.80;;;11.40;99.90;;;;;;5043143;28;20029;-88
2020/12/28 08:39:54;;;;;;;7.18;3.80;;;11.70;99.90;;;;;;5051877;28;20025;-88
2020/12/28 08:42:34;;;;;;;5.30;3.22;;;12.70;99.90;;;;;;5051449;28;20040;-88
2020/12/28 08:45:03;;;;;;;5.88;3.55;;;12.40;99.90;;;;;;5070522;28;20361;-88
2020/12/28 08:47:30;;;;;;;4.97;2.58;;;12.10;99.90;;;;;;5038495;28;20040;-88
2020/12/28 08:49:56;;;;;;;5.38;2.08;;;11.80;99.90;;;;;;5050631;28;20499;-88
2020/12/28 08:52:23;;;;;;;3.55;1.90;;;10.70;99.90;;;;;;5050688;28;20025;-88
2020/12/28 08:54:57;;;;;;;6.30;2.00;;;10.70;99.90;;;;;;5032700;28;20028;-88
2020/12/28 08:57:30;;;;;;;2.80;2.05;;;11.30;99.90;;;;;;5033132;28;20110;-88
2020/12/28 08:59:57;;;;;;;4.63;1.77;;;12.40;99.90;;;;;;5051733;28;20029;-88
2020/12/28 09:02:27;;;;;;;3.30;1.80;;;13.20;99.90;;;;;;5051251;28;20056;-88
2020/12/28 09:04:53;;;;;;;3.90;1.73;;;15.40;99.90;;;;;;5034230;28;20029;-88
2020/12/28 09:07:19;;;;;;;4.53;1.63;;;15.70;99.90;;;;;;5032716;28;20049;-88
2020/12/28 09:09:47;;;;;;;4.07;1.83;;;16.60;99.90;;;;;;5031864;28;20041;-88
2020/12/28 09:12:14;;;;;;;4.97;2.03;;;15.30;99.90;;;;;;5014429;28;20017;-88
2020/12/28 09:14:40;;;;;;;3.40;1.83;;;16.10;99.90;;;;;;5014159;28;20064;-88
2020/12/28 09:17:06;;;;;;;4.07;2.00;;;16.80;99.90;;;;;;5013578;28;20428;-88
2020/12/28 09:19:32;;;;;;;3.78;1.88;;;17.90;99.90;;;;;;5014507;28;20029;-88
2020/12/28 09:21:58;;;;;;;4.88;1.83;;;18.80;99.90;;;;;;5031951;28;20029;-88
2020/12/28 09:24:25;;;;;;;10.88;2.65;;;18.90;99.90;;;;;;5014326;28;20493;-88
2020/12/28 09:26:54;;;;;;;5.35;2.22;;;18.10;99.90;;;;;;5031899;28;20040;-88
2020/12/28 09:29:20;;;;;;;5.10;1.73;;;18.10;99.90;;;;;;5013868;28;20394;-88
2020/12/28 09:31:45;;;;;;;5.93;1.83;;;14.90;99.90;;;;;;5030002;28;20021;-88
2020/12/28 09:34:11;;;;;;;4.88;1.85;;;13.50;99.90;;;;;;5026238;28;20022;-88
2020/12/28 09:36:36;;;;;;;5.65;1.92;;;12.90;99.90;;;;;;5032043;28;20081;-88
2020/12/28 09:39:03;;;;;;;4.50;1.85;;;11.90;99.90;;;;;;5031904;28;20044;-88
2020/12/28 09:41:28;;;;;;;7.82;3.08;;;10.90;99.90;;;;;;5031828;28;20021;-88
2020/12/28 09:43:54;;;;;;;7.93;2.58;;;10.50;99.90;;;;;;5031343;28;20385;-88
2020/12/28 09:46:20;;;;;;;5.55;2.13;;;9.90;99.90;;;;;;5013323;28;20041;-88
2020/12/28 09:48:49;;;;;;;8.18;3.20;;;9.50;99.90;;;;;;5016815;28;20061;-88
2020/12/28 09:51:16;;;;;;;4.55;1.92;;;9.50;99.90;;;;;;5014853;28;20034;-88
2020/12/28 09:53:42;;;;;;;3.40;1.42;;;9.70;99.90;;;;;;5017670;28;20029;-88
2020/12/28 09:56:09;;;;;;;3.85;1.50;;;9.40;99.90;;;;;;5035453;28;20033;-88
2020/12/28 09:58:34;;;;;;;2.38;1.00;;;9.40;99.90;;;;;;5017491;28;20112;-88
2020/12/28 10:01:01;;;;;;;3.30;1.00;;;11.60;99.90;;;;;;5016235;28;20129;-88
2020/12/28 10:03:27;;;;;;;1.50;0.80;;;10.50;99.90;;;;;;5017609;28;20119;-88
2020/12/28 10:05:53;;;;;;;2.05;0.80;;;10.20;99.90;;;;;;5042159;28;20037;-88
2020/12/28 10:08:20;;;;;;;2.78;0.90;;;9.50;99.90;;;;;;5037175;28;20511;-88
2020/12/28 10:10:45;;;;;;;3.17;1.65;;;13.70;99.90;;;;;;5037184;28;20024;-88
2020/12/28 10:13:12;;;;;;;2.03;0.70;;;17.30;99.90;;;;;;5036974;28;20021;-88
2020/12/28 10:15:37;;;;;;;2.15;1.33;;;17.90;99.90;;;;;;5036817;28;20049;-88
2020/12/28 10:18:21;;;;;;;2.67;1.17;;;19.40;99.90;;;;;;5054866;28;20079;-88
2020/12/28 10:20:47;;;;;;;1.42;0.88;;;20.60;99.90;;;;;;5037043;28;20124;-88
2020/12/28 10:23:13;;;;;;;1.63;0.82;;;20.60;99.90;;;;;;5055092;28;20025;-88
2020/12/28 10:25:39;;;;;;;2.72;1.27;;;21.10;99.90;;;;;;5046226;28;20408;-88
2020/12/28 10:28:04;;;;;;;2.63;1.38;;;23.20;99.90;;;;;;5074584;28;20095;-89
2020/12/28 10:30:30;;;;;;;2.50;0.82;;;22.50;99.90;;;;;;5061079;28;20029;-88
2020/12/28 10:32:56;;;;;;;2.20;0.60;;;21.50;99.90;;;;;;5066001;28;20017;-88
2020/12/28 10:35:21;;;;;;;0.88;0.50;;;19.70;99.90;;;;;;5039071;28;20542;-88
2020/12/28 10:37:47;;;;;;;0.98;0.50;;;17.50;99.90;;;;;;5063396;28;20028;-88
2020/12/28 10:40:13;;;;;;;5.18;0.88;;;15.60;99.90;;;;;;5056379;28;20033;-88
2020/12/28 10:42:39;;;;;;;1.55;0.65;;;18.00;99.90;;;;;;5074555;28;20150;-90
2020/12/28 10:45:05;;;;;;;3.25;0.80;;;19.00;99.90;;;;;;5059355;28;20028;-89
2020/12/28 10:47:31;;;;;;;2.15;0.70;;;15.00;99.90;;;;;;5056498;28;20480;-89
2020/12/28 10:49:57;;;;;;;1.73;0.60;;;13.00;99.90;;;;;;5074376;28;20070;-89
2020/12/28 10:52:22;;;;;;;1.52;0.88;;;12.00;99.90;;;;;;5037929;28;20362;-89
2020/12/28 10:54:48;;;;;;;1.23;0.50;;;11.50;99.90;;;;;;5060191;28;20074;-88
2020/12/28 10:57:13;;;;;;;1.33;0.60;;;11.00;99.90;;;;;;5056259;28;20024;-88
2020/12/28 10:59:39;;;;;;;0.93;0.60;;;11.10;99.90;;;;;;5059081;28;20037;-92
2020/12/28 11:02:05;;;;;;;1.50;0.82;;;10.90;99.90;;;;;;5035300;28;20086;-88
2020/12/28 11:04:30;;;;;;;1.52;0.90;;;10.50;99.90;;;;;;5053920;28;20606;-89
2020/12/28 11:06:56;;;;;;;2.70;0.82;;;10.50;99.90;;;;;;5052692;28;20389;-89
2020/12/28 11:09:22;;;;;;;1.75;1.02;;;10.70;99.90;;;;;;5053496;28;20029;-88
2020/12/28 11:11:51;;;;;;;2.40;1.08;;;10.90;99.90;;;;;;5053222;28;20472;-88
2020/12/28 11:14:17;;;;;;;1.73;0.73;;;11.50;99.90;;;;;;5034461;28;20033;-89
2020/12/28 11:16:43;;;;;;;1.52;0.80;;;11.10;99.90;;;;;;5059923;28;20025;-88
2020/12/28 11:19:09;;;;;;;1.23;0.55;;;11.10;99.90;;;;;;5055774;28;20051;-90
2020/12/28 11:21:34;;;;;;;0.60;0.40;;;11.80;99.90;;;;;;5073716;28;20029;-90
2020/12/28 11:24:03;;;;;;;1.13;0.50;;;13.60;99.90;;;;;;5054522;28;20078;-90
2020/12/28 11:26:30;;;;;;;0.82;0.50;;;17.30;99.90;;;;;;5054886;28;20024;-90
2020/12/28 11:28:57;;;;;;;1.65;0.70;;;19.80;99.90;;;;;;5043278;28;20492;-90
2020/12/28 11:31:23;;;;;;;0.65;0.60;;;16.20;99.90;;;;;;5035136;28;20025;-89
2020/12/28 11:33:49;;;;;;;2.45;0.90;;;19.50;99.90;;;;;;5034749;28;20025;-90
2020/12/28 11:36:15;;;;;;;1.40;0.60;;;19.80;99.90;;;;;;5053668;28;20032;-88
2020/12/28 11:38:43;;;;;;;1.25;0.65;;;21.30;99.90;;;;;;5042083;28;20435;-89
2020/12/28 11:41:08;;;;;;;0.95;0.70;;;19.80;99.90;;;;;;5035617;28;20017;-90
2020/12/28 11:43:34;;;;;;;2.03;0.77;;;20.40;99.90;;;;;;5061978;28;20403;-88
2020/12/28 11:46:00;;;;;;;2.30;0.80;;;20.00;99.90;;;;;;5034671;28;20032;-89
2020/12/28 11:48:26;;;;;;;0.95;0.75;;;18.40;99.90;;;;;;5040155;28;20629;-89
2020/12/28 11:50:51;;;;;;;2.05;1.20;;;19.80;99.90;;;;;;5072751;28;20024;-89
2020/12/28 11:53:17;;;;;;;1.70;0.77;;;19.10;99.90;;;;;;5072188;28;20476;-89
2020/12/28 11:56:04;;;;;;;1.35;0.73;;;20.80;99.90;;;;;;5053435;28;20035;-88
2020/12/28 11:58:32;;;;;;;4.95;2.80;;;22.00;99.90;;;;;;5042417;28;20451;-88
2020/12/28 12:00:58;;;;;;;1.33;0.90;;;21.40;99.90;;;;;;5034018;28;20079;-87
2020/12/28 12:03:25;;;;;;;1.35;0.90;;;21.00;99.90;;;;;;5044410;28;20087;-88
2020/12/28 12:05:50;;;;;;;1.65;0.80;;;22.50;99.90;;;;;;5053183;28;20056;-88
2020/12/28 12:08:16;;;;;;;2.28;1.08;;;20.90;99.90;;;;;;5054165;28;20515;-88
2020/12/28 12:10:42;;;;;;;0.93;0.65;;;22.40;99.90;;;;;;5072117;28;20021;-88
2020/12/28 12:13:07;;;;;;;0.85;0.57;;;23.40;99.90;;;;;;5046596;28;20087;-90
2020/12/28 12:15:33;;;;;;;1.30;0.70;;;19.60;99.90;;;;;;5033973;28;20021;-90
2020/12/28 12:17:59;;;;;;;1.85;0.70;;;15.90;99.90;;;;;;5034738;28;20112;-88
2020/12/28 12:20:24;;;;;;;1.38;0.90;;;16.20;99.90;;;;;;5052623;28;20051;-89
2020/12/28 12:22:50;;;;;;;1.45;1.15;;;19.10;99.90;;;;;;5052327;28;20029;-89
2020/12/28 12:25:15;;;;;;;2.45;1.20;;;21.30;99.90;;;;;;5061092;28;20037;-88
2020/12/28 12:27:41;;;;;;;2.75;1.70;;;22.90;99.90;;;;;;5055026;28;20033;-90
2020/12/28 12:30:07;;;;;;;2.00;1.10;;;22.50;99.90;;;;;;5051699;28;20095;-89
2020/12/28 12:32:32;;;;;;;1.08;0.70;;;21.70;99.90;;;;;;5053057;28;20091;-91
2020/12/28 12:34:58;;;;;;;2.33;0.90;;;20.10;99.90;;;;;;5033736;28;20021;-90
2020/12/28 12:37:24;;;;;;;1.05;0.90;;;16.90;99.90;;;;;;5069547;28;20033;-88
2020/12/28 12:39:49;;;;;;;3.85;1.15;;;15.20;99.90;;;;;;5054569;28;20050;-88
2020/12/28 12:42:15;;;;;;;1.95;1.00;;;14.30;99.90;;;;;;5053651;28;20032;-87
2020/12/28 12:44:44;;;;;;;2.22;1.30;;;13.20;99.90;;;;;;5054407;28;20024;-87
2020/12/28 12:47:10;;;;;;;2.78;1.40;;;12.80;99.90;;;;;;5053886;28;20028;-87
2020/12/28 12:49:35;;;;;;;1.88;1.30;;;13.30;99.90;;;;;;5045648;28;20091;-87
2020/12/28 12:52:15;;;;;;;2.22;1.30;;;15.30;99.90;;;;;;5051958;28;20029;-88
2020/12/28 12:54:41;;;;;;;3.28;2.53;;;13.70;99.90;;;;;;5034252;28;20028;-88